sensor_id;sensor_type;location;lat;lon;timestamp;P1;durP1;ratioP1;P2;durP2;ratioP2
21206;SDS011;10761;48.532;8.026;2024-02-28T00:02:08;27.00;;;19.70;;
21206;SDS011;10761;48.532;8.026;2024-02-28T00:04:34;29.05;;;21.98;;
21206;SDS011;10761;48.532;8.026;2024-02-28T00:06:59;30.58;;;22.83;;
21206;SDS011;10761;48.532;8.026;2024-02-28T00:09:25;30.25;;;22.10;;
21206;SDS011;10761;48.532;8.026;2024-02-28T00:11:50;28.40;;;21.48;;
21206;SDS011;10761;48.532;8.026;2024-02-28T00:14:16;29.48;;;22.17;;
21206;SDS011;10761;48.532;8.026;2024-02-28T00:16:42;27.75;;;21.45;;
21206;SDS011;10761;48.532;8.026;2024-02-28T00:19:08;29.25;;;22.45;;
21206;SDS011;10761;48.532;8.026;2024-02-28T00:21:36;28.98;;;22.25;;
21206;SDS011;10761;48.532;8.026;2024-02-28T00:24:02;32.15;;;23.30;;
21206;SDS011;10761;48.532;8.026;2024-02-28T00:26:27;32.28;;;23.10;;
21206;SDS011;10761;48.532;8.026;2024-02-28T00:28:53;31.83;;;23.58;;
21206;SDS011;10761;48.532;8.026;2024-02-28T00:31:19;32.22;;;23.30;;
21206;SDS011;10761;48.532;8.026;2024-02-28T00:33:46;30.02;;;23.20;;
21206;SDS011;10761;48.532;8.026;2024-02-28T00:36:12;30.70;;;23.38;;
21206;SDS011;10761;48.532;8.026;2024-02-28T00:38:38;33.72;;;23.05;;
21206;SDS011;10761;48.532;8.026;2024-02-28T00:41:03;32.10;;;23.65;;
21206;SDS011;10761;48.532;8.026;2024-02-28T00:43:29;32.13;;;24.02;;
21206;SDS011;10761;48.532;8.026;2024-02-28T00:45:54;34.45;;;23.55;;
21206;SDS011;10761;48.532;8.026;2024-02-28T00:48:21;30.50;;;23.20;;
21206;SDS011;10761;48.532;8.026;2024-02-28T00:50:47;30.95;;;23.33;;
21206;SDS011;10761;48.532;8.026;2024-02-28T00:53:19;29.67;;;22.90;;
21206;SDS011;10761;48.532;8.026;2024-02-28T00:55:45;30.20;;;22.50;;
21206;SDS011;10761;48.532;8.026;2024-02-28T00:58:11;30.58;;;22.17;;
21206;SDS011;10761;48.532;8.026;2024-02-28T01:00:36;30.58;;;22.38;;
21206;SDS011;10761;48.532;8.026;2024-02-28T01:03:02;28.35;;;22.30;;
21206;SDS011;10761;48.532;8.026;2024-02-28T01:05:34;31.00;;;23.67;;
21206;SDS011;10761;48.532;8.026;2024-02-28T01:08:00;33.53;;;23.25;;
21206;SDS011;10761;48.532;8.026;2024-02-28T01:10:26;29.92;;;21.95;;
21206;SDS011;10761;48.532;8.026;2024-02-28T01:12:51;30.38;;;22.85;;
21206;SDS011;10761;48.532;8.026;2024-02-28T01:15:17;29.73;;;22.27;;
21206;SDS011;10761;48.532;8.026;2024-02-28T01:17:43;31.83;;;22.58;;
21206;SDS011;10761;48.532;8.026;2024-02-28T01:20:09;28.98;;;22.27;;
21206;SDS011;10761;48.532;8.026;2024-02-28T01:22:35;29.38;;;22.10;;
21206;SDS011;10761;48.532;8.026;2024-02-28T01:25:01;31.15;;;23.15;;
21206;SDS011;10761;48.532;8.026;2024-02-28T01:27:28;32.15;;;23.27;;
21206;SDS011;10761;48.532;8.026;2024-02-28T01:29:53;32.88;;;23.90;;
21206;SDS011;10761;48.532;8.026;2024-02-28T01:32:19;31.10;;;23.35;;
21206;SDS011;10761;48.532;8.026;2024-02-28T01:34:45;32.25;;;24.02;;
21206;SDS011;10761;48.532;8.026;2024-02-28T01:37:11;30.73;;;22.88;;
21206;SDS011;10761;48.532;8.026;2024-02-28T01:39:36;30.90;;;23.23;;
21206;SDS011;10761;48.532;8.026;2024-02-28T01:42:02;32.03;;;23.08;;
21206;SDS011;10761;48.532;8.026;2024-02-28T01:44:28;31.13;;;23.25;;
21206;SDS011;10761;48.532;8.026;2024-02-28T01:46:53;31.52;;;24.08;;
21206;SDS011;10761;48.532;8.026;2024-02-28T01:49:21;30.20;;;22.38;;
21206;SDS011;10761;48.532;8.026;2024-02-28T01:51:47;30.88;;;23.05;;
21206;SDS011;10761;48.532;8.026;2024-02-28T01:54:14;33.25;;;23.27;;
21206;SDS011;10761;48.532;8.026;2024-02-28T01:56:41;32.17;;;23.23;;
21206;SDS011;10761;48.532;8.026;2024-02-28T01:59:06;33.10;;;23.42;;
21206;SDS011;10761;48.532;8.026;2024-02-28T02:01:34;31.83;;;22.50;;
21206;SDS011;10761;48.532;8.026;2024-02-28T02:04:01;30.55;;;22.17;;
21206;SDS011;10761;48.532;8.026;2024-02-28T02:06:27;33.22;;;23.27;;
21206;SDS011;10761;48.532;8.026;2024-02-28T02:08:53;30.58;;;22.73;;
21206;SDS011;10761;48.532;8.026;2024-02-28T02:11:19;34.22;;;23.98;;
21206;SDS011;10761;48.532;8.026;2024-02-28T02:13:52;32.65;;;23.98;;
21206;SDS011;10761;48.532;8.026;2024-02-28T02:16:19;34.47;;;25.15;;
21206;SDS011;10761;48.532;8.026;2024-02-28T02:18:47;35.83;;;24.70;;
21206;SDS011;10761;48.532;8.026;2024-02-28T02:21:13;32.20;;;23.83;;
21206;SDS011;10761;48.532;8.026;2024-02-28T02:23:42;32.33;;;23.35;;
21206;SDS011;10761;48.532;8.026;2024-02-28T02:26:08;31.77;;;24.20;;
21206;SDS011;10761;48.532;8.026;2024-02-28T02:28:34;32.72;;;24.40;;
21206;SDS011;10761;48.532;8.026;2024-02-28T02:31:00;30.05;;;23.98;;
21206;SDS011;10761;48.532;8.026;2024-02-28T02:33:25;32.67;;;23.50;;
21206;SDS011;10761;48.532;8.026;2024-02-28T02:35:54;31.60;;;24.70;;
21206;SDS011;10761;48.532;8.026;2024-02-28T02:38:19;37.67;;;26.25;;
21206;SDS011;10761;48.532;8.026;2024-02-28T02:40:48;35.28;;;24.92;;
21206;SDS011;10761;48.532;8.026;2024-02-28T02:43:14;35.08;;;25.67;;
21206;SDS011;10761;48.532;8.026;2024-02-28T02:45:40;35.35;;;25.75;;
21206;SDS011;10761;48.532;8.026;2024-02-28T02:48:06;34.15;;;25.55;;
21206;SDS011;10761;48.532;8.026;2024-02-28T02:50:32;33.55;;;24.85;;
21206;SDS011;10761;48.532;8.026;2024-02-28T02:52:57;33.50;;;25.42;;
21206;SDS011;10761;48.532;8.026;2024-02-28T02:55:23;35.38;;;26.08;;
21206;SDS011;10761;48.532;8.026;2024-02-28T02:57:48;33.95;;;25.92;;
21206;SDS011;10761;48.532;8.026;2024-02-28T03:00:14;37.33;;;25.95;;
21206;SDS011;10761;48.532;8.026;2024-02-28T03:02:40;36.92;;;26.95;;
21206;SDS011;10761;48.532;8.026;2024-02-28T03:05:05;39.80;;;27.42;;
21206;SDS011;10761;48.532;8.026;2024-02-28T03:07:31;40.00;;;27.88;;
21206;SDS011;10761;48.532;8.026;2024-02-28T03:09:57;39.55;;;28.15;;
21206;SDS011;10761;48.532;8.026;2024-02-28T03:12:23;40.08;;;26.98;;
21206;SDS011;10761;48.532;8.026;2024-02-28T03:14:48;37.65;;;26.45;;
21206;SDS011;10761;48.532;8.026;2024-02-28T03:17:14;34.90;;;26.60;;
21206;SDS011;10761;48.532;8.026;2024-02-28T03:19:40;37.72;;;27.60;;
21206;SDS011;10761;48.532;8.026;2024-02-28T03:22:06;40.47;;;27.25;;
21206;SDS011;10761;48.532;8.026;2024-02-28T03:24:32;40.30;;;27.58;;
21206;SDS011;10761;48.532;8.026;2024-02-28T03:27:00;39.88;;;27.17;;
21206;SDS011;10761;48.532;8.026;2024-02-28T03:29:26;41.70;;;28.90;;
21206;SDS011;10761;48.532;8.026;2024-02-28T03:31:52;41.72;;;26.50;;
21206;SDS011;10761;48.532;8.026;2024-02-28T03:34:17;42.10;;;27.27;;
21206;SDS011;10761;48.532;8.026;2024-02-28T03:36:43;35.70;;;26.23;;
21206;SDS011;10761;48.532;8.026;2024-02-28T03:39:09;40.72;;;26.73;;
21206;SDS011;10761;48.532;8.026;2024-02-28T03:41:34;41.17;;;28.48;;
21206;SDS011;10761;48.532;8.026;2024-02-28T03:44:00;39.00;;;27.30;;
21206;SDS011;10761;48.532;8.026;2024-02-28T03:46:26;38.22;;;27.98;;
21206;SDS011;10761;48.532;8.026;2024-02-28T03:48:51;41.00;;;27.75;;
21206;SDS011;10761;48.532;8.026;2024-02-28T03:51:17;38.67;;;27.85;;
21206;SDS011;10761;48.532;8.026;2024-02-28T03:53:42;39.33;;;28.10;;
21206;SDS011;10761;48.532;8.026;2024-02-28T03:56:08;40.13;;;27.27;;
21206;SDS011;10761;48.532;8.026;2024-02-28T03:58:34;36.63;;;27.67;;
21206;SDS011;10761;48.532;8.026;2024-02-28T04:01:00;37.38;;;27.65;;
21206;SDS011;10761;48.532;8.026;2024-02-28T04:03:25;38.67;;;27.35;;
21206;SDS011;10761;48.532;8.026;2024-02-28T04:05:51;37.45;;;26.63;;
21206;SDS011;10761;48.532;8.026;2024-02-28T04:08:16;37.20;;;26.33;;
21206;SDS011;10761;48.532;8.026;2024-02-28T04:10:42;36.45;;;27.00;;
21206;SDS011;10761;48.532;8.026;2024-02-28T04:13:07;35.83;;;26.65;;
21206;SDS011;10761;48.532;8.026;2024-02-28T04:15:34;38.03;;;26.52;;
21206;SDS011;10761;48.532;8.026;2024-02-28T04:17:59;38.85;;;27.50;;
21206;SDS011;10761;48.532;8.026;2024-02-28T04:20:25;38.85;;;26.30;;
21206;SDS011;10761;48.532;8.026;2024-02-28T04:22:51;43.17;;;27.98;;
21206;SDS011;10761;48.532;8.026;2024-02-28T04:25:16;36.10;;;27.30;;
21206;SDS011;10761;48.532;8.026;2024-02-28T04:27:42;39.13;;;27.63;;
21206;SDS011;10761;48.532;8.026;2024-02-28T04:30:08;37.08;;;26.77;;
21206;SDS011;10761;48.532;8.026;2024-02-28T04:32:34;38.33;;;26.73;;
21206;SDS011;10761;48.532;8.026;2024-02-28T04:35:00;38.53;;;27.05;;
21206;SDS011;10761;48.532;8.026;2024-02-28T04:37:27;37.65;;;27.15;;
21206;SDS011;10761;48.532;8.026;2024-02-28T04:39:53;39.60;;;26.48;;
21206;SDS011;10761;48.532;8.026;2024-02-28T04:42:18;41.20;;;27.58;;
21206;SDS011;10761;48.532;8.026;2024-02-28T04:44:44;41.25;;;27.73;;
21206;SDS011;10761;48.532;8.026;2024-02-28T04:47:10;40.30;;;27.33;;
21206;SDS011;10761;48.532;8.026;2024-02-28T04:49:38;42.08;;;27.92;;
21206;SDS011;10761;48.532;8.026;2024-02-28T04:52:04;36.05;;;25.95;;
21206;SDS011;10761;48.532;8.026;2024-02-28T04:54:30;40.80;;;28.48;;
21206;SDS011;10761;48.532;8.026;2024-02-28T04:56:56;44.35;;;28.70;;
21206;SDS011;10761;48.532;8.026;2024-02-28T04:59:21;44.70;;;28.67;;
21206;SDS011;10761;48.532;8.026;2024-02-28T05:01:47;41.00;;;28.92;;
21206;SDS011;10761;48.532;8.026;2024-02-28T05:04:13;40.20;;;28.63;;
21206;SDS011;10761;48.532;8.026;2024-02-28T05:06:39;40.22;;;28.35;;
21206;SDS011;10761;48.532;8.026;2024-02-28T05:09:05;42.42;;;28.55;;
21206;SDS011;10761;48.532;8.026;2024-02-28T05:11:30;42.67;;;28.45;;
21206;SDS011;10761;48.532;8.026;2024-02-28T05:13:57;42.90;;;29.27;;
21206;SDS011;10761;48.532;8.026;2024-02-28T05:16:22;45.97;;;29.65;;
21206;SDS011;10761;48.532;8.026;2024-02-28T05:18:48;42.85;;;29.00;;
21206;SDS011;10761;48.532;8.026;2024-02-28T05:21:14;43.15;;;29.98;;
21206;SDS011;10761;48.532;8.026;2024-02-28T05:23:39;43.60;;;29.27;;
21206;SDS011;10761;48.532;8.026;2024-02-28T05:26:05;44.72;;;29.40;;
21206;SDS011;10761;48.532;8.026;2024-02-28T05:28:35;45.88;;;30.88;;
21206;SDS011;10761;48.532;8.026;2024-02-28T05:31:10;43.50;;;29.85;;
21206;SDS011;10761;48.532;8.026;2024-02-28T05:33:46;45.30;;;29.33;;
21206;SDS011;10761;48.532;8.026;2024-02-28T05:36:11;43.60;;;28.63;;
21206;SDS011;10761;48.532;8.026;2024-02-28T05:38:37;46.50;;;30.20;;
21206;SDS011;10761;48.532;8.026;2024-02-28T05:41:03;46.75;;;30.42;;
21206;SDS011;10761;48.532;8.026;2024-02-28T05:43:28;45.17;;;29.17;;
21206;SDS011;10761;48.532;8.026;2024-02-28T05:45:54;52.15;;;32.70;;
21206;SDS011;10761;48.532;8.026;2024-02-28T05:48:19;51.97;;;32.55;;
21206;SDS011;10761;48.532;8.026;2024-02-28T05:50:45;51.67;;;31.33;;
21206;SDS011;10761;48.532;8.026;2024-02-28T05:53:11;51.08;;;31.73;;
21206;SDS011;10761;48.532;8.026;2024-02-28T05:55:36;47.72;;;30.50;;
21206;SDS011;10761;48.532;8.026;2024-02-28T05:58:02;55.60;;;33.13;;
21206;SDS011;10761;48.532;8.026;2024-02-28T06:00:28;50.00;;;30.55;;
21206;SDS011;10761;48.532;8.026;2024-02-28T06:02:54;55.97;;;32.63;;
21206;SDS011;10761;48.532;8.026;2024-02-28T06:05:19;49.67;;;30.20;;
21206;SDS011;10761;48.532;8.026;2024-02-28T06:07:45;47.55;;;30.15;;
21206;SDS011;10761;48.532;8.026;2024-02-28T06:10:11;50.67;;;32.22;;
21206;SDS011;10761;48.532;8.026;2024-02-28T06:12:36;55.67;;;34.47;;
21206;SDS011;10761;48.532;8.026;2024-02-28T06:15:02;59.10;;;33.53;;
21206;SDS011;10761;48.532;8.026;2024-02-28T06:17:29;54.95;;;33.75;;
21206;SDS011;10761;48.532;8.026;2024-02-28T06:19:54;63.97;;;34.83;;
21206;SDS011;10761;48.532;8.026;2024-02-28T06:22:20;66.50;;;37.78;;
21206;SDS011;10761;48.532;8.026;2024-02-28T06:24:46;53.08;;;31.52;;
21206;SDS011;10761;48.532;8.026;2024-02-28T06:27:11;50.15;;;32.33;;
21206;SDS011;10761;48.532;8.026;2024-02-28T06:29:38;76.82;;;44.22;;
21206;SDS011;10761;48.532;8.026;2024-02-28T06:32:05;57.03;;;33.83;;
21206;SDS011;10761;48.532;8.026;2024-02-28T06:34:30;57.92;;;34.05;;
21206;SDS011;10761;48.532;8.026;2024-02-28T06:36:56;56.63;;;35.17;;
21206;SDS011;10761;48.532;8.026;2024-02-28T06:39:22;55.28;;;33.38;;
21206;SDS011;10761;48.532;8.026;2024-02-28T06:41:47;57.28;;;33.67;;
21206;SDS011;10761;48.532;8.026;2024-02-28T06:44:16;53.53;;;32.67;;
21206;SDS011;10761;48.532;8.026;2024-02-28T06:46:45;50.72;;;32.00;;
21206;SDS011;10761;48.532;8.026;2024-02-28T06:49:10;55.35;;;33.40;;
21206;SDS011;10761;48.532;8.026;2024-02-28T06:51:36;55.55;;;33.72;;
21206;SDS011;10761;48.532;8.026;2024-02-28T06:54:02;54.05;;;33.40;;
21206;SDS011;10761;48.532;8.026;2024-02-28T06:56:28;52.78;;;32.08;;
21206;SDS011;10761;48.532;8.026;2024-02-28T06:58:55;53.20;;;32.00;;
21206;SDS011;10761;48.532;8.026;2024-02-28T07:01:20;55.85;;;34.08;;
21206;SDS011;10761;48.532;8.026;2024-02-28T07:03:46;54.95;;;32.03;;
21206;SDS011;10761;48.532;8.026;2024-02-28T07:06:12;51.58;;;31.98;;
21206;SDS011;10761;48.532;8.026;2024-02-28T07:08:37;49.33;;;32.58;;
21206;SDS011;10761;48.532;8.026;2024-02-28T07:11:03;57.90;;;35.58;;
21206;SDS011;10761;48.532;8.026;2024-02-28T07:13:29;55.78;;;35.10;;
21206;SDS011;10761;48.532;8.026;2024-02-28T07:15:54;52.72;;;32.85;;
21206;SDS011;10761;48.532;8.026;2024-02-28T07:18:22;49.88;;;32.78;;
21206;SDS011;10761;48.532;8.026;2024-02-28T07:20:50;50.75;;;32.70;;
21206;SDS011;10761;48.532;8.026;2024-02-28T07:23:17;50.25;;;33.28;;
21206;SDS011;10761;48.532;8.026;2024-02-28T07:25:42;51.15;;;32.90;;
21206;SDS011;10761;48.532;8.026;2024-02-28T07:28:08;51.97;;;33.17;;
21206;SDS011;10761;48.532;8.026;2024-02-28T07:30:34;48.10;;;31.67;;
21206;SDS011;10761;48.532;8.026;2024-02-28T07:33:00;48.35;;;31.73;;
21206;SDS011;10761;48.532;8.026;2024-02-28T07:35:26;44.75;;;30.23;;
21206;SDS011;10761;48.532;8.026;2024-02-28T07:37:51;44.60;;;29.88;;
21206;SDS011;10761;48.532;8.026;2024-02-28T07:40:17;50.15;;;31.58;;
21206;SDS011;10761;48.532;8.026;2024-02-28T07:42:43;48.50;;;31.15;;
21206;SDS011;10761;48.532;8.026;2024-02-28T07:45:09;43.90;;;29.13;;
21206;SDS011;10761;48.532;8.026;2024-02-28T07:47:35;47.60;;;31.50;;
21206;SDS011;10761;48.532;8.026;2024-02-28T07:50:00;46.70;;;31.48;;
21206;SDS011;10761;48.532;8.026;2024-02-28T07:52:26;51.33;;;32.63;;
21206;SDS011;10761;48.532;8.026;2024-02-28T07:54:51;53.47;;;32.58;;
21206;SDS011;10761;48.532;8.026;2024-02-28T07:57:17;48.95;;;31.58;;
21206;SDS011;10761;48.532;8.026;2024-02-28T07:59:43;50.38;;;32.58;;
21206;SDS011;10761;48.532;8.026;2024-02-28T08:02:09;51.80;;;32.75;;
21206;SDS011;10761;48.532;8.026;2024-02-28T08:04:37;47.85;;;31.25;;
21206;SDS011;10761;48.532;8.026;2024-02-28T08:07:03;44.17;;;29.88;;
21206;SDS011;10761;48.532;8.026;2024-02-28T08:09:29;41.50;;;29.88;;
21206;SDS011;10761;48.532;8.026;2024-02-28T08:11:55;41.70;;;28.73;;
21206;SDS011;10761;48.532;8.026;2024-02-28T08:14:22;44.85;;;29.45;;
21206;SDS011;10761;48.532;8.026;2024-02-28T08:16:48;38.35;;;27.60;;
21206;SDS011;10761;48.532;8.026;2024-02-28T08:19:14;39.33;;;29.00;;
21206;SDS011;10761;48.532;8.026;2024-02-28T08:21:39;38.67;;;28.98;;
21206;SDS011;10761;48.532;8.026;2024-02-28T08:24:05;40.83;;;28.73;;
21206;SDS011;10761;48.532;8.026;2024-02-28T08:26:31;42.58;;;29.48;;
21206;SDS011;10761;48.532;8.026;2024-02-28T08:28:57;40.97;;;29.10;;
21206;SDS011;10761;48.532;8.026;2024-02-28T08:31:22;42.63;;;29.52;;
21206;SDS011;10761;48.532;8.026;2024-02-28T08:33:48;39.58;;;29.33;;
21206;SDS011;10761;48.532;8.026;2024-02-28T08:36:13;39.20;;;29.38;;
21206;SDS011;10761;48.532;8.026;2024-02-28T08:38:40;41.78;;;28.60;;
21206;SDS011;10761;48.532;8.026;2024-02-28T08:41:06;42.80;;;29.85;;
21206;SDS011;10761;48.532;8.026;2024-02-28T08:43:32;43.53;;;29.63;;
21206;SDS011;10761;48.532;8.026;2024-02-28T08:46:04;41.42;;;30.05;;
21206;SDS011;10761;48.532;8.026;2024-02-28T08:48:30;39.58;;;29.33;;
21206;SDS011;10761;48.532;8.026;2024-02-28T08:50:56;42.88;;;30.08;;
21206;SDS011;10761;48.532;8.026;2024-02-28T08:53:22;39.45;;;29.30;;
21206;SDS011;10761;48.532;8.026;2024-02-28T08:55:48;42.17;;;30.02;;
21206;SDS011;10761;48.532;8.026;2024-02-28T08:58:14;40.33;;;29.35;;
21206;SDS011;10761;48.532;8.026;2024-02-28T09:00:39;41.00;;;28.23;;
21206;SDS011;10761;48.532;8.026;2024-02-28T09:03:05;36.92;;;28.48;;
21206;SDS011;10761;48.532;8.026;2024-02-28T09:05:31;35.35;;;27.17;;
21206;SDS011;10761;48.532;8.026;2024-02-28T09:07:56;36.47;;;27.17;;
21206;SDS011;10761;48.532;8.026;2024-02-28T09:10:22;37.45;;;27.38;;
21206;SDS011;10761;48.532;8.026;2024-02-28T09:12:51;31.38;;;26.15;;
21206;SDS011;10761;48.532;8.026;2024-02-28T09:15:16;36.03;;;27.52;;
21206;SDS011;10761;48.532;8.026;2024-02-28T09:17:43;33.78;;;26.58;;
21206;SDS011;10761;48.532;8.026;2024-02-28T09:20:09;35.10;;;26.45;;
21206;SDS011;10761;48.532;8.026;2024-02-28T09:22:35;35.88;;;27.02;;
21206;SDS011;10761;48.532;8.026;2024-02-28T09:25:01;35.95;;;26.95;;
21206;SDS011;10761;48.532;8.026;2024-02-28T09:27:29;31.88;;;26.08;;
21206;SDS011;10761;48.532;8.026;2024-02-28T09:29:55;33.05;;;25.88;;
21206;SDS011;10761;48.532;8.026;2024-02-28T09:32:20;33.40;;;25.05;;
21206;SDS011;10761;48.532;8.026;2024-02-28T09:34:46;32.72;;;25.90;;
21206;SDS011;10761;48.532;8.026;2024-02-28T09:37:12;35.45;;;25.38;;
21206;SDS011;10761;48.532;8.026;2024-02-28T09:39:38;30.60;;;24.52;;
21206;SDS011;10761;48.532;8.026;2024-02-28T09:42:05;29.23;;;24.42;;
21206;SDS011;10761;48.532;8.026;2024-02-28T09:44:31;31.13;;;24.65;;
21206;SDS011;10761;48.532;8.026;2024-02-28T09:46:58;31.90;;;24.58;;
21206;SDS011;10761;48.532;8.026;2024-02-28T09:49:24;36.72;;;25.27;;
21206;SDS011;10761;48.532;8.026;2024-02-28T09:51:51;29.05;;;25.10;;
21206;SDS011;10761;48.532;8.026;2024-02-28T09:54:17;31.95;;;25.77;;
21206;SDS011;10761;48.532;8.026;2024-02-28T09:56:43;32.40;;;26.02;;
21206;SDS011;10761;48.532;8.026;2024-02-28T09:59:10;32.00;;;24.67;;
21206;SDS011;10761;48.532;8.026;2024-02-28T10:01:37;32.78;;;25.67;;
21206;SDS011;10761;48.532;8.026;2024-02-28T10:04:07;33.13;;;25.25;;
21206;SDS011;10761;48.532;8.026;2024-02-28T10:06:35;34.90;;;26.17;;
21206;SDS011;10761;48.532;8.026;2024-02-28T10:09:00;31.48;;;24.88;;
21206;SDS011;10761;48.532;8.026;2024-02-28T10:11:26;32.35;;;25.80;;
21206;SDS011;10761;48.532;8.026;2024-02-28T10:13:52;29.02;;;24.02;;
21206;SDS011;10761;48.532;8.026;2024-02-28T10:16:20;33.67;;;25.77;;
21206;SDS011;10761;48.532;8.026;2024-02-28T10:18:45;29.95;;;24.52;;
21206;SDS011;10761;48.532;8.026;2024-02-28T10:21:12;31.77;;;25.40;;
21206;SDS011;10761;48.532;8.026;2024-02-28T10:23:39;34.00;;;25.08;;
21206;SDS011;10761;48.532;8.026;2024-02-28T10:26:04;31.73;;;24.70;;
21206;SDS011;10761;48.532;8.026;2024-02-28T10:28:30;31.60;;;24.92;;
21206;SDS011;10761;48.532;8.026;2024-02-28T10:30:55;33.83;;;24.58;;
21206;SDS011;10761;48.532;8.026;2024-02-28T10:33:22;31.52;;;24.70;;
21206;SDS011;10761;48.532;8.026;2024-02-28T10:35:53;31.48;;;24.98;;
21206;SDS011;10761;48.532;8.026;2024-02-28T10:38:20;33.60;;;25.33;;
21206;SDS011;10761;48.532;8.026;2024-02-28T10:40:46;34.47;;;26.40;;
21206;SDS011;10761;48.532;8.026;2024-02-28T10:43:12;33.35;;;26.30;;
21206;SDS011;10761;48.532;8.026;2024-02-28T10:45:42;32.17;;;25.25;;
21206;SDS011;10761;48.532;8.026;2024-02-28T10:48:08;33.33;;;24.50;;
21206;SDS011;10761;48.532;8.026;2024-02-28T10:50:35;33.13;;;24.75;;
21206;SDS011;10761;48.532;8.026;2024-02-28T10:53:03;35.20;;;24.92;;
21206;SDS011;10761;48.532;8.026;2024-02-28T10:55:32;32.75;;;24.67;;
21206;SDS011;10761;48.532;8.026;2024-02-28T10:58:03;36.38;;;26.00;;
21206;SDS011;10761;48.532;8.026;2024-02-28T11:00:33;33.90;;;24.75;;
21206;SDS011;10761;48.532;8.026;2024-02-28T11:03:00;35.92;;;25.45;;
21206;SDS011;10761;48.532;8.026;2024-02-28T11:05:37;33.05;;;25.58;;
21206;SDS011;10761;48.532;8.026;2024-02-28T11:08:10;33.40;;;24.65;;
21206;SDS011;10761;48.532;8.026;2024-02-28T11:10:42;32.50;;;24.63;;
21206;SDS011;10761;48.532;8.026;2024-02-28T11:13:20;30.90;;;24.13;;
21206;SDS011;10761;48.532;8.026;2024-02-28T11:15:50;37.78;;;27.33;;
21206;SDS011;10761;48.532;8.026;2024-02-28T11:18:16;36.30;;;24.67;;
21206;SDS011;10761;48.532;8.026;2024-02-28T11:20:42;34.83;;;25.17;;
21206;SDS011;10761;48.532;8.026;2024-02-28T11:23:11;32.88;;;25.00;;
21206;SDS011;10761;48.532;8.026;2024-02-28T11:25:37;32.35;;;24.73;;
21206;SDS011;10761;48.532;8.026;2024-02-28T11:28:03;30.50;;;24.80;;
21206;SDS011;10761;48.532;8.026;2024-02-28T11:30:29;31.90;;;23.08;;
21206;SDS011;10761;48.532;8.026;2024-02-28T11:32:55;32.85;;;23.73;;
21206;SDS011;10761;48.532;8.026;2024-02-28T11:35:23;32.90;;;24.33;;
21206;SDS011;10761;48.532;8.026;2024-02-28T11:37:50;32.10;;;24.10;;
21206;SDS011;10761;48.532;8.026;2024-02-28T11:40:18;32.10;;;24.55;;
21206;SDS011;10761;48.532;8.026;2024-02-28T11:42:44;30.10;;;23.98;;
21206;SDS011;10761;48.532;8.026;2024-02-28T11:45:10;30.35;;;24.08;;
21206;SDS011;10761;48.532;8.026;2024-02-28T11:47:36;32.47;;;23.77;;
21206;SDS011;10761;48.532;8.026;2024-02-28T11:50:02;27.38;;;22.05;;
21206;SDS011;10761;48.532;8.026;2024-02-28T11:52:31;28.58;;;23.40;;
21206;SDS011;10761;48.532;8.026;2024-02-28T11:54:58;30.52;;;23.88;;
21206;SDS011;10761;48.532;8.026;2024-02-28T11:57:24;31.58;;;25.52;;
21206;SDS011;10761;48.532;8.026;2024-02-28T11:59:50;31.00;;;21.67;;
21206;SDS011;10761;48.532;8.026;2024-02-28T12:02:16;23.60;;;19.35;;
21206;SDS011;10761;48.532;8.026;2024-02-28T12:04:43;23.80;;;19.50;;
21206;SDS011;10761;48.532;8.026;2024-02-28T12:07:09;26.40;;;20.25;;
21206;SDS011;10761;48.532;8.026;2024-02-28T12:09:35;27.77;;;22.17;;
21206;SDS011;10761;48.532;8.026;2024-02-28T12:12:01;25.42;;;20.38;;
21206;SDS011;10761;48.532;8.026;2024-02-28T12:14:31;23.33;;;19.20;;
21206;SDS011;10761;48.532;8.026;2024-02-28T12:16:58;22.83;;;18.48;;
21206;SDS011;10761;48.532;8.026;2024-02-28T12:19:23;24.10;;;17.63;;
21206;SDS011;10761;48.532;8.026;2024-02-28T12:21:49;22.50;;;18.40;;
21206;SDS011;10761;48.532;8.026;2024-02-28T12:24:15;23.88;;;18.75;;
21206;SDS011;10761;48.532;8.026;2024-02-28T12:26:41;23.90;;;19.50;;
21206;SDS011;10761;48.532;8.026;2024-02-28T12:29:07;22.27;;;18.88;;
21206;SDS011;10761;48.532;8.026;2024-02-28T12:31:32;21.45;;;17.85;;
21206;SDS011;10761;48.532;8.026;2024-02-28T12:33:58;19.10;;;16.30;;
21206;SDS011;10761;48.532;8.026;2024-02-28T12:36:24;20.08;;;16.63;;
21206;SDS011;10761;48.532;8.026;2024-02-28T12:38:51;21.52;;;16.42;;
21206;SDS011;10761;48.532;8.026;2024-02-28T12:41:17;19.20;;;15.93;;
21206;SDS011;10761;48.532;8.026;2024-02-28T12:43:42;18.10;;;15.85;;
21206;SDS011;10761;48.532;8.026;2024-02-28T12:46:08;21.38;;;15.77;;
21206;SDS011;10761;48.532;8.026;2024-02-28T12:48:37;18.92;;;15.65;;
21206;SDS011;10761;48.532;8.026;2024-02-28T12:51:04;19.77;;;16.00;;
21206;SDS011;10761;48.532;8.026;2024-02-28T12:53:30;21.75;;;16.83;;
21206;SDS011;10761;48.532;8.026;2024-02-28T12:55:56;19.83;;;16.52;;
21206;SDS011;10761;48.532;8.026;2024-02-28T12:58:22;21.88;;;15.88;;
21206;SDS011;10761;48.532;8.026;2024-02-28T13:00:49;20.35;;;16.50;;
21206;SDS011;10761;48.532;8.026;2024-02-28T13:03:15;19.55;;;16.02;;
21206;SDS011;10761;48.532;8.026;2024-02-28T13:05:41;17.85;;;14.98;;
21206;SDS011;10761;48.532;8.026;2024-02-28T13:08:07;17.23;;;14.77;;
21206;SDS011;10761;48.532;8.026;2024-02-28T13:10:32;18.33;;;15.38;;
21206;SDS011;10761;48.532;8.026;2024-02-28T13:13:01;19.70;;;15.18;;
21206;SDS011;10761;48.532;8.026;2024-02-28T13:15:27;17.88;;;14.88;;
21206;SDS011;10761;48.532;8.026;2024-02-28T13:17:52;17.77;;;14.65;;
21206;SDS011;10761;48.532;8.026;2024-02-28T13:20:18;16.83;;;15.00;;
21206;SDS011;10761;48.532;8.026;2024-02-28T13:22:44;17.15;;;14.48;;
21206;SDS011;10761;48.532;8.026;2024-02-28T13:25:10;16.70;;;14.93;;
21206;SDS011;10761;48.532;8.026;2024-02-28T13:27:36;17.60;;;15.57;;
21206;SDS011;10761;48.532;8.026;2024-02-28T13:30:03;17.83;;;14.65;;
21206;SDS011;10761;48.532;8.026;2024-02-28T13:32:29;17.48;;;14.60;;
21206;SDS011;10761;48.532;8.026;2024-02-28T13:34:54;18.55;;;14.50;;
21206;SDS011;10761;48.532;8.026;2024-02-28T13:37:20;16.67;;;13.93;;
21206;SDS011;10761;48.532;8.026;2024-02-28T13:39:46;16.38;;;14.60;;
21206;SDS011;10761;48.532;8.026;2024-02-28T13:42:12;20.25;;;14.80;;
21206;SDS011;10761;48.532;8.026;2024-02-28T13:44:37;21.00;;;14.02;;
21206;SDS011;10761;48.532;8.026;2024-02-28T13:47:03;17.13;;;13.45;;
21206;SDS011;10761;48.532;8.026;2024-02-28T13:49:29;14.77;;;12.82;;
21206;SDS011;10761;48.532;8.026;2024-02-28T13:51:55;14.25;;;12.75;;
21206;SDS011;10761;48.532;8.026;2024-02-28T13:54:20;14.13;;;12.38;;
21206;SDS011;10761;48.532;8.026;2024-02-28T13:56:46;14.50;;;12.18;;
21206;SDS011;10761;48.532;8.026;2024-02-28T13:59:11;14.23;;;12.73;;
21206;SDS011;10761;48.532;8.026;2024-02-28T14:01:37;14.60;;;13.05;;
21206;SDS011;10761;48.532;8.026;2024-02-28T14:04:03;14.07;;;12.50;;
21206;SDS011;10761;48.532;8.026;2024-02-28T14:06:29;13.35;;;11.95;;
21206;SDS011;10761;48.532;8.026;2024-02-28T14:08:55;13.48;;;11.68;;
21206;SDS011;10761;48.532;8.026;2024-02-28T14:11:21;13.68;;;11.75;;
21206;SDS011;10761;48.532;8.026;2024-02-28T14:13:47;12.35;;;11.05;;
21206;SDS011;10761;48.532;8.026;2024-02-28T14:16:13;13.30;;;11.70;;